Time;durP1;ratioP1;P1;durP2;ratioP2;P2;SDS_P1;SDS_P2;PMS_P1;PMS_P2;Temp;Humidity;BMP_temperature;BMP_pressure;BME280_temperature;BME280_humidity;BME280_pressure;Samples;Min_cycle;Max_cycle;Signal;HPM_P1;HPM_P2
2023/01/08 00:01:11;;;;;;;5.07;3.85;;;10.20;99.90;;;;;;7377755;19;20592;-56
2023/01/08 00:03:39;;;;;;;4.72;3.90;;;10.20;99.90;;;;;;7378217;19;20584;-58
2023/01/08 00:06:13;;;;;;;5.07;3.50;;;10.20;99.90;;;;;;7371447;19;20358;-56
2023/01/08 00:08:40;;;;;;;4.80;3.70;;;10.20;99.90;;;;;;7373518;19;20416;-59
2023/01/08 00:11:07;;;;;;;6.40;3.95;;;10.20;99.90;;;;;;7375661;19;20018;-58
2023/01/08 00:13:34;;;;;;;4.57;3.35;;;10.20;99.90;;;;;;7359425;19;20029;-58
2023/01/08 00:16:19;;;;;;;7.07;3.95;;;10.20;99.90;;;;;;7367909;19;20438;-58
2023/01/08 00:18:46;;;;;;;4.75;3.30;;;10.20;99.90;;;;;;7360161;19;20031;-59
2023/01/08 00:21:13;;;;;;;6.38;3.50;;;10.20;99.90;;;;;;7362254;19;20019;-58
2023/01/08 00:23:39;;;;;;;6.35;3.33;;;10.20;99.90;;;;;;7361039;19;20014;-59
2023/01/08 00:26:09;;;;;;;7.05;4.18;;;10.10;99.90;;;;;;7364033;19;20010;-59
2023/01/08 00:28:36;;;;;;;4.93;3.80;;;10.20;99.90;;;;;;7362299;19;20936;-58
2023/01/08 00:31:11;;;;;;;5.90;3.60;;;10.20;99.90;;;;;;7362849;19;20019;-58
2023/01/08 00:33:38;;;;;;;5.05;4.10;;;10.20;99.90;;;;;;7363105;19;20010;-59
2023/01/08 00:36:10;;;;;;;6.13;3.83;;;10.20;99.90;;;;;;7364653;19;20437;-58
2023/01/08 00:38:36;;;;;;;;;;;10.20;99.90;;;;;;7365611;19;20039;-59
2023/01/08 00:41:05;;;;;;;5.18;3.72;;;10.20;99.90;;;;;;7362660;19;19929;-59
2023/01/08 00:43:32;;;;;;;4.78;3.53;;;10.20;99.90;;;;;;7363327;19;20018;-58
2023/01/08 00:46:01;;;;;;;5.25;3.85;;;10.20;99.90;;;;;;7363031;19;20084;-58
2023/01/08 00:48:28;;;;;;;5.53;3.75;;;10.20;99.90;;;;;;7370169;19;20506;-56
2023/01/08 00:50:54;;;;;;;6.10;3.63;;;10.20;99.90;;;;;;7376972;19;20018;-57
2023/01/08 00:53:21;;;;;;;4.68;3.85;;;10.20;99.90;;;;;;7377247;19;20019;-55
2023/01/08 00:55:48;;;;;;;5.18;3.28;;;10.30;99.90;;;;;;7374812;19;20658;-59
2023/01/08 00:58:14;;;;;;;5.63;4.00;;;10.30;99.90;;;;;;7361493;19;20021;-56
2023/01/08 01:00:41;;;;;;;5.22;3.63;;;10.30;99.90;;;;;;7378134;19;20020;-58
2023/01/08 01:03:07;;;;;;;5.95;3.78;;;10.30;99.90;;;;;;7360015;19;20588;-59
2023/01/08 01:05:33;;;;;;;5.10;3.78;;;10.20;99.90;;;;;;7361703;19;20014;-59
2023/01/08 01:08:00;;;;;;;5.55;4.05;;;10.30;99.90;;;;;;7379080;19;20427;-56
2023/01/08 01:10:26;;;;;;;6.97;4.00;;;10.20;99.90;;;;;;7382902;19;20449;-56
2023/01/08 01:12:52;;;;;;;4.28;3.53;;;10.20;99.90;;;;;;7379733;19;20010;-56
2023/01/08 01:15:19;;;;;;;7.05;3.47;;;10.20;99.90;;;;;;7379994;19;20010;-56
2023/01/08 01:17:47;;;;;;;5.47;3.47;;;10.20;99.90;;;;;;7381848;19;20018;-56
2023/01/08 01:20:15;;;;;;;5.50;3.45;;;10.20;99.90;;;;;;7379340;19;20026;-56
2023/01/08 01:22:41;;;;;;;5.18;2.92;;;10.20;99.90;;;;;;7376587;19;20018;-57
2023/01/08 01:25:09;;;;;;;4.95;3.28;;;10.10;99.90;;;;;;7378788;19;20517;-56
2023/01/08 01:27:56;;;;;;;8.40;3.08;;;10.10;99.90;;;;;;7380972;19;20011;-56
2023/01/08 01:30:23;;;;;;;4.38;3.00;;;10.00;99.90;;;;;;7378809;19;20049;-57
2023/01/08 01:32:49;;;;;;;6.43;2.78;;;9.90;99.90;;;;;;7381140;19;20043;-56
2023/01/08 01:35:18;;;;;;;5.93;2.80;;;9.80;99.90;;;;;;7363080;19;20431;-59
2023/01/08 01:37:44;;;;;;;6.22;2.10;;;9.70;99.90;;;;;;7360665;19;20733;-59
2023/01/08 01:40:11;;;;;;;4.30;1.67;;;9.60;99.90;;;;;;7361775;19;20018;-59
2023/01/08 01:42:40;;;;;;;4.78;1.70;;;9.40;99.90;;;;;;7363857;19;20611;-59
2023/01/08 01:45:22;;;;;;;7.75;1.83;;;9.40;99.90;;;;;;7365360;19;20030;-59
2023/01/08 01:48:04;;;;;;;10.10;1.92;;;9.30;99.90;;;;;;7361166;19;20055;-59
2023/01/08 01:50:36;;;;;;;7.90;1.60;;;9.20;99.90;;;;;;7367573;19;20011;-59
2023/01/08 01:53:08;;;;;;;6.63;1.58;;;9.10;99.90;;;;;;7359690;19;20026;-59
2023/01/08 01:55:39;;;;;;;7.28;1.80;;;9.10;99.90;;;;;;7363431;19;20321;-59
2023/01/08 01:58:24;;;;;;;7.35;1.83;;;9.10;99.90;;;;;;7361865;19;20707;-59
2023/01/08 02:00:56;;;;;;;8.55;1.75;;;9.10;99.90;;;;;;7362313;19;20022;-58
2023/01/08 02:03:24;;;;;;;6.65;1.90;;;9.00;99.90;;;;;;7358802;19;20264;-59
2023/01/08 02:06:09;;;;;;;9.98;2.38;;;8.90;99.90;;;;;;7364264;19;20011;-58
2023/01/08 02:09:19;;;;;;;6.25;1.77;;;8.90;99.90;;;;;;7364326;19;20624;-59
2023/01/08 02:12:15;;;;;;;10.98;2.20;;;8.90;99.90;;;;;;7359790;19;20019;-59
2023/01/08 02:14:55;;;;;;;9.32;1.77;;;8.90;99.90;;;;;;7358477;19;20032;-58
2023/01/08 02:17:51;;;;;;;10.15;2.25;;;8.90;99.90;;;;;;7357175;19;20015;-59
2023/01/08 02:20:33;;;;;;;10.65;2.55;;;8.80;99.90;;;;;;7357044;19;20306;-59
2023/01/08 02:23:28;;;;;;;4.63;1.48;;;8.90;99.90;;;;;;7356278;19;20624;-59
2023/01/08 02:25:57;;;;;;;7.95;1.80;;;8.80;99.90;;;;;;7360619;19;20018;-58
2023/01/08 02:28:26;;;;;;;10.70;2.28;;;8.80;99.90;;;;;;7359896;19;20025;-59
2023/01/08 02:30:54;;;;;;;14.43;2.22;;;8.80;99.90;;;;;;7361741;19;20348;-59
2023/01/08 02:33:22;;;;;;;6.75;2.33;;;8.80;99.90;;;;;;7363176;19;20022;-59
2023/01/08 02:36:09;;;;;;;14.98;2.83;;;8.80;99.90;;;;;;7358500;19;20015;-59
2023/01/08 02:38:43;;;;;;;11.15;2.60;;;8.70;99.90;;;;;;7362734;19;20015;-59
2023/01/08 02:41:16;;;;;;;14.80;2.25;;;8.70;99.90;;;;;;7358338;19;20019;-59
2023/01/08 02:43:46;;;;;;;12.48;2.97;;;8.80;99.90;;;;;;7361877;19;20709;-59
2023/01/08 02:46:22;;;;;;;12.00;2.30;;;8.70;99.90;;;;;;7358966;19;20018;-58
2023/01/08 02:48:55;;;;;;;10.88;2.50;;;8.70;99.90;;;;;;7364270;19;20025;-59
2023/01/08 02:51:34;;;;;;;10.05;2.58;;;8.60;99.90;;;;;;7357702;19;20018;-59
2023/01/08 02:54:05;;;;;;;9.02;2.13;;;8.60;99.90;;;;;;7363285;19;20133;-59
2023/01/08 02:56:40;;;;;;;15.25;2.60;;;8.50;99.90;;;;;;7362490;19;20454;-58
2023/01/08 02:59:08;;;;;;;11.02;2.70;;;8.60;99.90;;;;;;7363983;19;20038;-59
2023/01/08 03:01:35;;;;;;;8.70;2.13;;;8.50;99.90;;;;;;7360775;19;20019;-59
2023/01/08 03:04:18;;;;;;;8.68;2.03;;;8.50;99.90;;;;;;7360275;19;20022;-59
2023/01/08 03:06:45;;;;;;;10.13;2.00;;;8.50;99.90;;;;;;7360142;19;20022;-58
2023/01/08 03:09:14;;;;;;;11.95;1.95;;;8.40;99.90;;;;;;7360648;19;20353;-59
2023/01/08 03:12:05;;;;;;;8.73;2.22;;;8.40;99.90;;;;;;7360079;19;20018;-59
2023/01/08 03:14:49;;;;;;;9.40;2.10;;;8.40;99.90;;;;;;7359722;19;20541;-58
2023/01/08 03:17:35;;;;;;;8.73;2.60;;;8.40;99.90;;;;;;7366541;19;20792;-59
2023/01/08 03:20:09;;;;;;;6.55;2.03;;;8.40;99.90;;;;;;7365134;19;20445;-59
2023/01/08 03:22:40;;;;;;;8.57;2.47;;;8.40;99.90;;;;;;7366758;19;20443;-60
2023/01/08 03:25:08;;;;;;;8.23;2.58;;;8.40;99.90;;;;;;7363125;19;20018;-59
2023/01/08 03:27:43;;;;;;;8.40;3.10;;;8.40;99.90;;;;;;7366530;19;20018;-59
2023/01/08 03:30:13;;;;;;;8.38;3.30;;;8.40;99.90;;;;;;7369873;19;20595;-58
2023/01/08 03:32:42;;;;;;;6.78;2.90;;;8.50;99.90;;;;;;7381402;19;20061;-56
2023/01/08 03:35:14;;;;;;;6.70;3.00;;;8.40;99.90;;;;;;7386938;19;20022;-56
2023/01/08 03:37:45;;;;;;;5.97;3.13;;;8.50;99.90;;;;;;7380153;19;20501;-56
2023/01/08 03:40:27;;;;;;;8.50;4.05;;;8.50;99.90;;;;;;7376966;19;20032;-56
2023/01/08 03:42:54;;;;;;;9.90;4.72;;;8.50;99.90;;;;;;7368734;19;20031;-60
2023/01/08 03:45:23;;;;;;;10.35;4.75;;;8.60;99.90;;;;;;7373170;19;20352;-60
2023/01/08 03:47:50;;;;;;;7.60;4.70;;;8.70;99.90;;;;;;7369228;19;20026;-59
2023/01/08 03:50:21;;;;;;;8.50;5.05;;;8.80;99.90;;;;;;7365187;19;20045;-59
2023/01/08 03:52:49;;;;;;;9.10;5.00;;;8.90;99.90;;;;;;7367674;19;20018;-59
2023/01/08 03:55:15;;;;;;;8.38;5.22;;;8.90;99.90;;;;;;7364095;19;20049;-59
2023/01/08 03:57:42;;;;;;;10.00;5.15;;;9.00;99.90;;;;;;7365245;19;20015;-60
2023/01/08 04:00:09;;;;;;;7.05;4.70;;;9.10;99.90;;;;;;7363886;19;20033;-59
2023/01/08 04:02:35;;;;;;;8.07;4.80;;;9.10;99.90;;;;;;7368789;19;20015;-59
2023/01/08 04:05:02;;;;;;;6.28;3.58;;;9.10;99.90;;;;;;7363982;19;20018;-58
2023/01/08 04:07:28;;;;;;;6.45;3.60;;;9.20;99.90;;;;;;7365011;19;20815;-59
2023/01/08 04:09:55;;;;;;;6.22;3.63;;;9.20;99.90;;;;;;7368143;19;20512;-58
2023/01/08 04:12:23;;;;;;;7.70;3.80;;;9.20;99.90;;;;;;7363969;19;20382;-59
2023/01/08 04:14:49;;;;;;;7.78;3.22;;;9.20;99.90;;;;;;7381169;19;20336;-56
2023/01/08 04:17:15;;;;;;;5.88;2.83;;;9.20;99.90;;;;;;7381885;19;20580;-56
2023/01/08 04:19:42;;;;;;;6.57;2.67;;;9.20;99.90;;;;;;7372349;19;20469;-59
2023/01/08 04:22:11;;;;;;;6.15;2.90;;;9.10;99.90;;;;;;7376275;19;20489;-56
2023/01/08 04:24:38;;;;;;;5.95;2.60;;;9.20;99.90;;;;;;7374271;19;20010;-59
2023/01/08 04:27:05;;;;;;;8.38;2.55;;;9.10;99.90;;;;;;7356717;19;20022;-59
2023/01/08 04:29:31;;;;;;;6.32;2.15;;;9.10;99.90;;;;;;7364983;19;20118;-59
2023/01/08 04:31:59;;;;;;;5.70;2.28;;;9.10;99.90;;;;;;7363634;19;20011;-58
2023/01/08 04:34:26;;;;;;;4.55;2.20;;;9.10;99.90;;;;;;7365841;19;20025;-59
2023/01/08 04:36:53;;;;;;;5.85;3.00;;;9.10;99.90;;;;;;7365907;19;20023;-59
2023/01/08 04:39:20;;;;;;;6.85;2.92;;;9.00;99.90;;;;;;7363714;19;20015;-59
2023/01/08 04:41:46;;;;;;;5.75;2.70;;;9.00;99.90;;;;;;7367592;19;20018;-59
2023/01/08 04:44:12;;;;;;;7.22;2.75;;;9.00;99.90;;;;;;7361633;19;20029;-59
2023/01/08 04:46:38;;;;;;;8.75;3.42;;;8.90;99.90;;;;;;7372642;19;20038;-59
2023/01/08 04:49:04;;;;;;;5.82;2.60;;;8.90;99.90;;;;;;7369853;19;20011;-60
2023/01/08 04:51:31;;;;;;;5.53;3.30;;;8.80;99.90;;;;;;7368513;19;20026;-59
2023/01/08 04:53:57;;;;;;;5.15;2.80;;;8.90;99.90;;;;;;7371503;19;20010;-58
2023/01/08 04:56:24;;;;;;;7.45;3.08;;;8.80;99.90;;;;;;7368002;19;20018;-59
2023/01/08 04:58:53;;;;;;;5.57;3.42;;;8.80;99.90;;;;;;7370959;19;20033;-59
2023/01/08 05:01:21;;;;;;;6.40;2.97;;;8.80;99.90;;;;;;7368573;19;20353;-59
2023/01/08 05:03:51;;;;;;;6.57;3.10;;;8.80;99.90;;;;;;7369537;19;20373;-59
2023/01/08 05:06:17;;;;;;;5.45;2.50;;;8.80;99.90;;;;;;7369511;19;20022;-59
2023/01/08 05:08:43;;;;;;;6.63;3.50;;;8.80;99.90;;;;;;7366443;19;20022;-59
2023/01/08 05:11:10;;;;;;;4.80;3.03;;;8.80;99.90;;;;;;7372137;19;20097;-59
2023/01/08 05:13:36;;;;;;;7.25;3.20;;;8.80;99.90;;;;;;7372227;19;20397;-59
2023/01/08 05:16:03;;;;;;;5.22;3.13;;;8.80;99.90;;;;;;7369975;19;20031;-59
2023/01/08 05:18:29;;;;;;;5.63;3.20;;;8.80;99.90;;;;;;7370675;19;20041;-59
2023/01/08 05:21:06;;;;;;;8.13;2.95;;;8.80;99.90;;;;;;7366871;19;20517;-59
2023/01/08 05:23:33;;;;;;;5.88;3.25;;;8.80;99.90;;;;;;7374188;19;20022;-59
2023/01/08 05:26:01;;;;;;;7.05;3.00;;;8.70;99.90;;;;;;7369047;19;20022;-59
2023/01/08 05:28:28;;;;;;;7.32;3.50;;;8.70;99.90;;;;;;7366996;19;20035;-59
2023/01/08 05:30:55;;;;;;;5.45;3.17;;;8.60;99.90;;;;;;7363808;19;20506;-58
2023/01/08 05:33:22;;;;;;;5.53;3.03;;;8.70;99.90;;;;;;7368858;19;20367;-59
2023/01/08 05:35:49;;;;;;;6.45;3.28;;;8.60;99.90;;;;;;7363546;19;20382;-56
2023/01/08 05:38:16;;;;;;;6.00;3.03;;;8.60;99.90;;;;;;7381394;19;20011;-56
2023/01/08 05:40:43;;;;;;;6.20;3.75;;;8.60;99.90;;;;;;7379599;19;20018;-56
2023/01/08 05:43:10;;;;;;;6.85;3.92;;;8.50;99.90;;;;;;7375228;19;20011;-59
2023/01/08 05:45:36;;;;;;;7.30;4.40;;;8.50;99.90;;;;;;7366199;19;20347;-56
2023/01/08 05:48:06;;;;;;;6.43;4.38;;;8.50;99.90;;;;;;7369065;19;20132;-59
2023/01/08 05:50:34;;;;;;;8.10;4.22;;;8.50;99.90;;;;;;7370905;19;20026;-59
2023/01/08 05:53:00;;;;;;;7.70;4.72;;;8.60;99.90;;;;;;7366102;19;20010;-56
2023/01/08 05:55:27;;;;;;;8.40;4.22;;;8.60;99.90;;;;;;7383175;19;20018;-56
2023/01/08 05:57:53;;;;;;;12.27;4.63;;;8.50;99.90;;;;;;7364029;19;20026;-59
2023/01/08 06:00:25;;;;;;;6.85;4.65;;;8.60;99.90;;;;;;7379756;19;20026;-56
2023/01/08 06:02:51;;;;;;;9.68;4.43;;;8.60;99.90;;;;;;7372216;19;20506;-56
2023/01/08 06:05:18;;;;;;;9.95;4.18;;;8.60;99.90;;;;;;7363244;19;20722;-58
2023/01/08 06:07:45;;;;;;;8.20;3.40;;;8.60;99.90;;;;;;7366701;19;20564;-56
2023/01/08 06:10:12;;;;;;;8.23;4.05;;;8.50;99.90;;;;;;7368226;19;20754;-58
2023/01/08 06:12:38;;;;;;;8.15;3.75;;;8.50;99.90;;;;;;7364133;19;20800;-59
2023/01/08 06:15:05;;;;;;;5.38;2.65;;;8.50;99.90;;;;;;7369593;19;20449;-57
2023/01/08 06:17:38;;;;;;;7.50;2.40;;;8.40;99.90;;;;;;7384620;19;20012;-57
2023/01/08 06:20:05;;;;;;;5.65;2.83;;;8.50;99.90;;;;;;7382702;19;20020;-56
2023/01/08 06:22:32;;;;;;;8.38;2.70;;;8.50;99.90;;;;;;7373803;19;20029;-59
2023/01/08 06:24:59;;;;;;;7.30;3.15;;;8.50;99.90;;;;;;7375660;19;20018;-59
2023/01/08 06:27:26;;;;;;;8.10;2.55;;;8.50;99.90;;;;;;7362970;19;20018;-59
2023/01/08 06:29:52;;;;;;;7.32;2.25;;;8.50;99.90;;;;;;7361128;19;20026;-58
2023/01/08 06:32:18;;;;;;;6.57;2.47;;;8.40;99.90;;;;;;7357058;19;20022;-58
2023/01/08 06:34:47;;;;;;;8.13;2.30;;;8.40;99.90;;;;;;7365352;19;20014;-59
2023/01/08 06:37:13;;;;;;;7.97;2.25;;;8.30;99.90;;;;;;7359119;19;20041;-58
2023/01/08 06:39:42;;;;;;;6.43;2.10;;;8.40;99.90;;;;;;7363556;19;20018;-59
2023/01/08 06:42:08;;;;;;;4.13;2.13;;;8.30;99.90;;;;;;7358772;19;20477;-59
2023/01/08 06:44:35;;;;;;;8.30;2.03;;;8.30;99.90;;;;;;7363466;19;20022;-59
2023/01/08 06:47:01;;;;;;;7.82;2.35;;;8.30;99.90;;;;;;7363213;19;20014;-59
2023/01/08 06:49:27;;;;;;;4.45;2.08;;;8.30;99.90;;;;;;7356903;19;20451;-60
2023/01/08 06:51:54;;;;;;;7.07;2.22;;;8.30;99.90;;;;;;7364950;19;20374;-59
2023/01/08 06:54:20;;;;;;;6.28;2.08;;;8.30;99.90;;;;;;7358237;19;20015;-59
2023/01/08 06:56:48;;;;;;;4.60;2.00;;;8.30;99.90;;;;;;7361601;19;20018;-59
2023/01/08 06:59:15;;;;;;;9.90;2.30;;;8.30;99.90;;;;;;7359349;19;20025;-59
2023/01/08 07:01:42;;;;;;;6.38;2.30;;;8.30;99.90;;;;;;7364141;19;20387;-60
2023/01/08 07:04:08;;;;;;;7.25;2.20;;;8.20;99.90;;;;;;7362020;19;20042;-59
2023/01/08 07:06:36;;;;;;;6.07;2.15;;;8.30;99.90;;;;;;7360595;19;20027;-59
2023/01/08 07:09:12;;;;;;;4.88;2.03;;;8.30;99.90;;;;;;7360331;19;20011;-59
2023/01/08 07:11:39;;;;;;;6.57;2.05;;;8.30;99.90;;;;;;7360604;19;20015;-58
2023/01/08 07:14:05;;;;;;;8.52;1.98;;;8.20;99.90;;;;;;7359250;19;20022;-62
2023/01/08 07:16:31;;;;;;;8.27;2.22;;;8.20;99.90;;;;;;7365171;19;20014;-56
2023/01/08 07:18:58;;;;;;;7.85;1.92;;;8.20;99.90;;;;;;7379557;19;20675;-58
2023/01/08 07:21:24;;;;;;;7.03;1.88;;;8.10;99.90;;;;;;7370508;19;20010;-57
2023/01/08 07:23:51;;;;;;;6.80;2.03;;;8.10;99.90;;;;;;7378540;19;20022;-57
2023/01/08 07:26:17;;;;;;;8.73;2.20;;;8.10;99.90;;;;;;7368255;19;20018;-59
2023/01/08 07:28:48;;;;;;;8.38;2.30;;;8.20;99.90;;;;;;7371891;19;20098;-56
2023/01/08 07:31:15;;;;;;;9.00;2.58;;;8.20;99.90;;;;;;7377154;19;20018;-56
2023/01/08 07:33:43;;;;;;;9.68;2.58;;;8.20;99.90;;;;;;7369867;19;20011;-59
2023/01/08 07:36:12;;;;;;;7.72;2.05;;;8.20;99.90;;;;;;7363851;19;20021;-59
2023/01/08 07:38:38;;;;;;;9.13;2.47;;;8.20;99.90;;;;;;7374739;19;20036;-57
2023/01/08 07:41:04;;;;;;;7.85;3.00;;;8.20;99.90;;;;;;7359205;19;20912;-56
2023/01/08 07:43:31;;;;;;;7.78;2.10;;;8.20;99.90;;;;;;7362746;19;20582;-59
2023/01/08 07:45:57;;;;;;;7.57;2.47;;;8.10;99.90;;;;;;7362010;19;20341;-57
2023/01/08 07:48:26;;;;;;;10.63;3.58;;;8.10;99.90;;;;;;7376949;19;20015;-56
2023/01/08 07:51:01;;;;;;;10.43;3.33;;;8.00;99.90;;;;;;7378182;19;20043;-56
2023/01/08 07:53:28;;;;;;;6.45;3.05;;;8.00;99.90;;;;;;7378188;19;20030;-56
2023/01/08 07:56:10;;;;;;;8.40;2.88;;;8.00;99.90;;;;;;7377506;19;20086;-57
2023/01/08 07:58:36;;;;;;;10.77;4.20;;;7.90;99.90;;;;;;7378737;19;20018;-56
2023/01/08 08:01:09;;;;;;;8.40;3.40;;;7.90;99.90;;;;;;7376687;19;20043;-56
2023/01/08 08:03:36;;;;;;;11.02;3.50;;;7.80;99.90;;;;;;7383817;19;20381;-56
2023/01/08 08:06:09;;;;;;;10.40;3.40;;;7.80;99.90;;;;;;7386936;19;20088;-56
2023/01/08 08:08:35;;;;;;;8.10;3.10;;;7.80;99.90;;;;;;7386092;19;20014;-57
2023/01/08 08:11:02;;;;;;;9.02;3.05;;;7.70;99.90;;;;;;7391067;19;20007;-56
2023/01/08 08:13:28;;;;;;;9.32;3.75;;;7.60;99.90;;;;;;7386473;19;20010;-56
2023/01/08 08:15:54;;;;;;;11.18;2.97;;;7.60;99.90;;;;;;7384204;19;20021;-57
2023/01/08 08:18:21;;;;;;;6.30;2.78;;;7.60;99.90;;;;;;7381627;19;20022;-56
2023/01/08 08:20:50;;;;;;;10.02;3.08;;;7.50;99.90;;;;;;7383890;19;20018;-57
2023/01/08 08:23:17;;;;;;;8.30;3.00;;;7.50;99.90;;;;;;7384632;19;20374;-56
2023/01/08 08:25:44;;;;;;;11.00;3.15;;;7.40;99.90;;;;;;7383661;19;20018;-57
2023/01/08 08:28:11;;;;;;;6.50;2.53;;;7.40;99.90;;;;;;7383778;19;20486;-56
2023/01/08 08:30:38;;;;;;;8.25;2.63;;;7.50;99.90;;;;;;7385125;19;20018;-56
2023/01/08 08:33:06;;;;;;;7.90;2.40;;;7.70;99.90;;;;;;7385136;19;20025;-56
2023/01/08 08:35:33;;;;;;;8.10;2.45;;;7.70;99.90;;;;;;7371710;19;20025;-58
2023/01/08 08:38:01;;;;;;;7.40;2.60;;;7.90;99.90;;;;;;7372061;19;20055;-56
2023/01/08 08:40:28;;;;;;;8.23;2.67;;;8.10;99.90;;;;;;7382687;19;20014;-56
2023/01/08 08:43:00;;;;;;;10.18;2.63;;;8.20;99.90;;;;;;7384830;19;20572;-56
2023/01/08 08:45:27;;;;;;;8.95;2.08;;;8.30;99.90;;;;;;7383459;19;20388;-57
2023/01/08 08:47:57;;;;;;;7.28;1.90;;;8.30;99.90;;;;;;7388051;19;20379;-57
2023/01/08 08:50:23;;;;;;;7.78;2.83;;;8.40;99.90;;;;;;7379960;19;20019;-57
2023/01/08 08:52:50;;;;;;;8.73;2.20;;;8.40;99.90;;;;;;7381160;19;20045;-57
2023/01/08 08:55:17;;;;;;;6.28;1.90;;;8.60;99.90;;;;;;7378879;19;20046;-57
2023/01/08 08:57:46;;;;;;;5.13;1.80;;;8.70;99.90;;;;;;7383125;19;21152;-57
2023/01/08 09:00:13;;;;;;;7.95;2.30;;;8.90;99.90;;;;;;7368157;19;20021;-58
2023/01/08 09:02:41;;;;;;;7.13;2.10;;;9.10;99.90;;;;;;7366285;19;20018;-59
2023/01/08 09:05:08;;;;;;;7.43;2.05;;;9.60;99.90;;;;;;7374931;19;20051;-56
2023/01/08 09:07:36;;;;;;;7.03;1.98;;;9.80;99.90;;;;;;7381424;19;20466;-59
2023/01/08 09:10:03;;;;;;;5.05;2.13;;;9.90;99.90;;;;;;7367070;19;20019;-59
2023/01/08 09:12:29;;;;;;;5.57;1.65;;;10.00;99.90;;;;;;7370302;19;20025;-56
2023/01/08 09:14:56;;;;;;;6.53;1.73;;;10.00;99.90;;;;;;7365812;19;20018;-59
2023/01/08 09:17:24;;;;;;;7.15;1.90;;;10.10;99.90;;;;;;7369784;19;20890;-59
2023/01/08 09:19:51;;;;;;;5.50;1.92;;;10.10;99.90;;;;;;7363724;19;20055;-59
2023/01/08 09:22:17;;;;;;;6.70;1.83;;;10.10;99.90;;;;;;7364307;19;20488;-59
2023/01/08 09:24:43;;;;;;;5.82;1.75;;;10.10;99.90;;;;;;7372366;19;20407;-56
2023/01/08 09:27:10;;;;;;;5.95;2.25;;;10.20;99.90;;;;;;7372378;19;20018;-59
2023/01/08 09:29:39;;;;;;;5.13;1.67;;;10.00;99.90;;;;;;7365275;19;20022;-59
2023/01/08 09:32:06;;;;;;;6.25;1.95;;;10.00;99.90;;;;;;7365249;19;20636;-59
2023/01/08 09:34:34;;;;;;;7.60;2.15;;;9.70;99.90;;;;;;7362617;19;20448;-59
2023/01/08 09:37:01;;;;;;;6.90;1.75;;;9.60;99.90;;;;;;7377540;19;20018;-56
2023/01/08 09:39:29;;;;;;;8.10;2.67;;;9.60;99.90;;;;;;7372775;19;20018;-59
2023/01/08 09:41:57;;;;;;;6.97;1.90;;;9.60;99.90;;;;;;7364396;19;20026;-59
2023/01/08 09:44:28;;;;;;;5.53;1.60;;;9.70;99.90;;;;;;7362185;19;20022;-59
2023/01/08 09:46:55;;;;;;;7.25;1.75;;;9.60;99.90;;;;;;7366114;19;20457;-60
2023/01/08 09:49:32;;;;;;;7.80;2.05;;;9.80;99.90;;;;;;7362961;19;20019;-59
2023/01/08 09:51:59;;;;;;;8.52;2.42;;;9.80;99.90;;;;;;7372242;19;20021;-56
2023/01/08 09:54:26;;;;;;;12.63;2.25;;;9.80;99.90;;;;;;7376360;19;20774;-57
2023/01/08 09:56:53;;;;;;;8.82;2.42;;;9.60;99.90;;;;;;7371938;19;20018;-56
2023/01/08 09:59:20;;;;;;;9.48;1.98;;;9.60;99.90;;;;;;7372137;19;20473;-58
2023/01/08 10:01:55;;;;;;;9.10;1.80;;;9.60;99.90;;;;;;7363788;19;20435;-59
2023/01/08 10:04:25;;;;;;;9.85;2.20;;;9.60;99.90;;;;;;7363440;19;20034;-59
2023/01/08 10:06:54;;;;;;;12.30;3.10;;;9.60;99.90;;;;;;7369894;19;20017;-57
2023/01/08 10:09:28;;;;;;;9.43;2.38;;;9.70;99.90;;;;;;7376908;19;20023;-57
2023/01/08 10:11:59;;;;;;;7.28;2.10;;;9.80;99.90;;;;;;7378334;19;20023;-57
2023/01/08 10:14:32;;;;;;;10.52;2.50;;;9.80;99.90;;;;;;7370499;19;20018;-58
2023/01/08 10:17:46;;;;;;;9.95;2.05;;;9.70;99.90;;;;;;7364123;19;20481;-58
2023/01/08 10:20:15;;;;;;;12.55;2.80;;;9.80;99.90;;;;;;7360713;19;20014;-59
2023/01/08 10:22:42;;;;;;;7.97;2.38;;;9.70;99.90;;;;;;7361967;19;20592;-59
2023/01/08 10:25:12;;;;;;;11.35;2.65;;;9.80;99.90;;;;;;7352185;19;20022;-59
2023/01/08 10:28:00;;;;;;;15.30;3.40;;;9.90;99.90;;;;;;7363745;19;20037;-58
2023/01/08 10:30:29;;;;;;;9.85;2.42;;;10.00;99.90;;;;;;7366172;19;20027;-59
2023/01/08 10:33:02;;;;;;;10.38;2.22;;;10.20;99.90;;;;;;7364788;19;20392;-59
2023/01/08 10:35:39;;;;;;;10.38;2.20;;;10.50;99.90;;;;;;7364860;19;20026;-56
2023/01/08 10:38:06;;;;;;;7.18;2.42;;;10.50;99.90;;;;;;7371456;19;20018;-57
2023/01/08 10:40:36;;;;;;;9.82;2.63;;;10.60;99.90;;;;;;7373069;19;20023;-57
2023/01/08 10:43:11;;;;;;;9.52;2.42;;;10.60;99.90;;;;;;7372801;19;20489;-56
2023/01/08 10:45:40;;;;;;;9.55;2.00;;;10.50;99.90;;;;;;7371984;19;20013;-56
2023/01/08 10:48:15;;;;;;;9.63;2.45;;;10.50;99.90;;;;;;7373854;19;20018;-56
2023/01/08 10:50:42;;;;;;;7.82;2.42;;;10.40;99.90;;;;;;7370850;19;20038;-58
2023/01/08 10:53:23;;;;;;;13.27;2.78;;;10.40;99.90;;;;;;7361890;19;20048;-59
2023/01/08 10:56:04;;;;;;;8.70;2.10;;;10.50;99.90;;;;;;7360867;19;20022;-61
2023/01/08 10:58:40;;;;;;;8.93;2.17;;;10.40;99.90;;;;;;7369920;19;20018;-61
2023/01/08 11:01:19;;;;;;;8.88;2.30;;;10.50;99.90;;;;;;7364687;19;20018;-56
2023/01/08 11:03:57;;;;;;;8.73;2.45;;;10.90;99.90;;;;;;7376440;19;20468;-56
2023/01/08 11:06:30;;;;;;;10.30;2.17;;;11.50;99.90;;;;;;7379458;19;21413;-56
2023/01/08 11:09:02;;;;;;;8.45;1.98;;;11.90;99.90;;;;;;7377039;19;20037;-56
2023/01/08 11:11:37;;;;;;;5.72;1.85;;;12.30;99.90;;;;;;7376566;19;20049;-55
2023/01/08 11:14:11;;;;;;;7.28;2.28;;;12.50;99.90;;;;;;7379818;19;20014;-55
2023/01/08 11:16:40;;;;;;;8.85;2.33;;;11.90;99.90;;;;;;7378199;19;20550;-56
2023/01/08 11:19:21;;;;;;;12.13;2.45;;;11.80;99.90;;;;;;7378225;19;20021;-56
2023/01/08 11:22:00;;;;;;;13.82;2.70;;;12.00;99.90;;;;;;7379429;19;20339;-56
2023/01/08 11:24:36;;;;;;;6.90;2.33;;;11.70;99.90;;;;;;7379130;19;20019;-55
2023/01/08 11:27:11;;;;;;;9.77;2.35;;;11.80;99.90;;;;;;7379839;19;20018;-56
2023/01/08 11:29:40;;;;;;;9.27;2.35;;;12.00;99.90;;;;;;7377903;19;20505;-56
2023/01/08 11:32:28;;;;;;;11.10;2.33;;;11.80;99.90;;;;;;7379348;19;20493;-55
2023/01/08 11:35:13;;;;;;;13.05;2.83;;;11.90;99.90;;;;;;7375398;19;20470;-56
2023/01/08 11:37:50;;;;;;;10.80;2.83;;;11.60;99.90;;;;;;7384622;19;20119;-56
2023/01/08 11:40:24;;;;;;;9.65;2.58;;;11.30;99.90;;;;;;7380684;19;20034;-56
2023/01/08 11:43:16;;;;;;;8.75;2.55;;;10.90;99.90;;;;;;7386984;19;20018;-56
2023/01/08 11:45:48;;;;;;;10.38;2.00;;;10.90;99.90;;;;;;7385384;19;20011;-55
2023/01/08 11:48:48;;;;;;;12.40;2.97;;;11.00;99.90;;;;;;7386458;19;20025;-55
2023/01/08 11:51:49;;;;;;;11.48;3.28;;;11.20;99.90;;;;;;7383692;19;20014;-56
2023/01/08 11:54:21;;;;;;;12.13;2.22;;;11.50;99.90;;;;;;7385132;19;20018;-55
2023/01/08 11:57:05;;;;;;;11.93;3.47;;;11.50;99.90;;;;;;7382613;19;20465;-55
2023/01/08 12:00:01;;;;;;;9.40;2.40;;;12.30;99.90;;;;;;7383834;19;20094;-56
2023/01/08 12:02:54;;;;;;;10.20;2.72;;;12.40;99.90;;;;;;7379408;19;20019;-55
2023/01/08 12:05:45;;;;;;;14.60;2.60;;;12.40;99.90;;;;;;7378093;19;20105;-56
2023/01/08 12:08:48;;;;;;;16.25;3.15;;;12.80;99.90;;;;;;7382119;19;20019;-56
2023/01/08 12:11:56;;;;;;;10.10;2.83;;;12.90;99.90;;;;;;7381555;19;20124;-56
2023/01/08 12:15:03;;;;;;;13.90;3.30;;;12.40;99.90;;;;;;7373258;19;20015;-59
2023/01/08 12:18:15;;;;;;;12.35;2.83;;;12.10;99.90;;;;;;7364977;19;20584;-59
2023/01/08 12:20:57;;;;;;;8.85;2.47;;;11.80;99.90;;;;;;7363775;19;20773;-58
2023/01/08 12:23:55;;;;;;;9.88;2.50;;;11.70;99.90;;;;;;7367428;19;20018;-59
2023/01/08 12:26:30;;;;;;;9.43;2.70;;;12.40;99.90;;;;;;7361910;19;20037;-58
2023/01/08 12:29:15;;;;;;;11.85;2.45;;;12.70;99.90;;;;;;7366616;19;20018;-58
2023/01/08 12:31:51;;;;;;;10.38;2.35;;;13.00;99.90;;;;;;7371490;19;20595;-59
2023/01/08 12:34:29;;;;;;;11.25;2.35;;;13.50;99.90;;;;;;7366974;19;20021;-59
2023/01/08 12:37:04;;;;;;;11.18;1.98;;;13.20;99.90;;;;;;7369178;19;20497;-59
2023/01/08 12:39:41;;;;;;;8.77;2.20;;;12.70;99.90;;;;;;7369582;19;20477;-56
2023/01/08 12:42:13;;;;;;;10.27;2.60;;;12.10;99.90;;;;;;7371361;19;20022;-58
2023/01/08 12:44:40;;;;;;;7.05;1.88;;;12.50;99.90;;;;;;7363987;19;20025;-59
2023/01/08 12:47:21;;;;;;;9.90;2.10;;;12.90;99.90;;;;;;7364624;19;20022;-59
2023/01/08 12:49:57;;;;;;;6.82;2.50;;;13.10;99.90;;;;;;7362267;19;22049;-58
2023/01/08 12:52:38;;;;;;;8.82;2.47;;;12.90;99.90;;;;;;7360998;19;20468;-59
2023/01/08 12:55:34;;;;;;;9.82;2.10;;;12.50;99.90;;;;;;7374030;19;20379;-56
2023/01/08 12:58:18;;;;;;;10.57;2.42;;;12.20;99.90;;;;;;7383065;19;20428;-56
2023/01/08 13:01:15;;;;;;;9.52;2.17;;;12.60;99.90;;;;;;7379855;19;20026;-56
2023/01/08 13:03:45;;;;;;;10.55;2.22;;;12.80;99.90;;;;;;7380891;19;20093;-56
2023/01/08 13:06:15;;;;;;;14.77;2.60;;;12.60;99.90;;;;;;7377298;19;20031;-56
2023/01/08 13:08:56;;;;;;;10.73;2.30;;;12.10;99.90;;;;;;7378232;19;20027;-56
2023/01/08 13:11:41;;;;;;;5.90;2.10;;;12.40;99.90;;;;;;7370107;19;20071;-58
2023/01/08 13:14:38;;;;;;;8.82;2.08;;;12.90;99.90;;;;;;7356700;19;20018;-58